KFHU

Sierra Vista Municipal-Libby AAF Airport

Fort Huachuca Sierra Vista, Arizona, USA
TAF KFHU 141807Z 1418/1524 12009KT 9999 FEW250 QNH3021INS BECMG 1502/1503 VRB06KT 9999 BKN200 QNH3018INS BECMG 1515/1516 10009KT 9999 FEW120 BKN150 QNH3019INS TX14/1420Z TN00/1513Z
Issued Valid From Valid To
Dec-14 @ 18:07 UTC
(4 hours ago)
Dec-14 @ 18:00 UTC
(4 hours ago)
Dec-16 @ 00:00 UTC
(-1 days ago)
Dec-14 @ 18:00 to Dec-15 @ 02:00
TAF KFHU 141807Z 1418/1524 12009KT 9999 FEW250 QNH3021INS
Wind Visibility Clouds Readings
120° at 9 knots Greater than 6 miles
  • Few at 25,000' AGL
Altimeter 30.21" Hg
Pressure 1023 hPa
Becoming Dec-15 @ 02:00 to Dec-15 @ 15:00
BECMG 1502/1503 VRB06KT 9999 BKN200 QNH3018INS
Wind Visibility Clouds Readings
Variable at 6 knots Greater than 6 miles
  • Broken at 20,000' AGL
Altimeter 30.18" Hg
Pressure 1022 hPa
Becoming Dec-15 @ 15:00 to Dec-16 @ 00:00
BECMG 1515/1516 10009KT 9999 FEW120 BKN150 QNH3019INS TX14/1420Z TN00/1513Z
Wind Visibility Clouds Readings
100° at 9 knots Greater than 6 miles
  • Few at 12,000' AGL
  • Broken at 15,000' AGL
Altimeter 30.18" Hg
Pressure 1022 hPa
TAF KFHU 141807Z 1418/1524 12009KT 9999 FEW250 QNH3021INS BECMG 1502/1503 VRB06KT 9999 BKN200 QNH3018INS BECMG 1515/1516 10009KT 9999 FEW120 BKN150 QNH3019INS TX14/1420Z TN00/1513Z
Issued Dec-14 @ 18:07 UTC
(4 hours ago)
Valid From Dec-14 @ 18:00 UTC
(4 hours ago)
Valid To Dec-16 @ 00:00 UTC
(-1 days ago)
Dec-14 @ 18:00 - Dec-15 @ 02:00
Wind Visibility
120° at 9 knots Greater than 6 miles
Clouds
  • Few at 25,000' AGL
Becoming Dec-15 @ 02:00 - Dec-15 @ 15:00
Wind Visibility
Variable at 6 knots Greater than 6 miles
Clouds
  • Broken at 20,000' AGL
Becoming Dec-15 @ 15:00 - Dec-16 @ 00:00
Wind Visibility
100° at 9 knots Greater than 6 miles
Clouds
  • Few at 12,000' AGL
  • Broken at 15,000' AGL